createdAt,value
2022-08-22T00:00:37.682Z,98471.28
2022-08-22T00:03:48.992Z,98471.09
2022-08-22T00:07:13.053Z,98473.19
2022-08-22T00:10:24.981Z,98472.94
2022-08-22T00:13:35.589Z,98470.66
2022-08-22T00:16:43.811Z,98474.44
2022-08-22T00:19:48.882Z,98481.03
2022-08-22T00:22:55.765Z,98484.88
2022-08-22T00:26:03.041Z,98482.53
2022-08-22T00:29:12.149Z,98467.56
2022-08-22T00:32:26.663Z,98475.53
2022-08-22T00:35:33.171Z,98468.75
2022-08-22T00:38:41.385Z,98473.69
2022-08-22T00:42:00.701Z,98467.91
2022-08-22T00:45:18.346Z,98470.06
2022-08-22T00:48:41.105Z,98471.97
2022-08-22T00:52:03.630Z,98470.25
2022-08-22T00:55:17.534Z,98473.69
2022-08-22T00:58:44.728Z,98479.06
2022-08-22T01:01:51.722Z,98479.50
2022-08-22T01:05:02.490Z,98473.28
2022-08-22T01:08:15.934Z,98477.00
2022-08-22T01:11:44.840Z,98469.59
2022-08-22T01:14:49.771Z,98477.00
2022-08-22T01:18:04.675Z,98466.81
2022-08-22T01:21:26.519Z,98467.84
2022-08-22T01:25:05.723Z,98464.19
2022-08-22T01:28:25.835Z,98466.47
2022-08-22T01:31:44.968Z,98467.66
2022-08-22T01:34:58.565Z,98471.28
2022-08-22T01:38:10.035Z,98484.22
2022-08-22T01:41:20.326Z,98479.19
2022-08-22T01:44:30.181Z,98475.63
2022-08-22T01:47:37.658Z,98473.16
2022-08-22T01:50:47.692Z,98470.66
2022-08-22T01:53:53.832Z,98468.75
2022-08-22T01:57:00.873Z,98464.41
2022-08-22T02:00:15.620Z,98463.34
2022-08-22T02:03:22.445Z,98462.06
2022-08-22T02:06:33.111Z,98467.78
2022-08-22T02:09:40.082Z,98467.44
2022-08-22T02:12:43.319Z,98465.72
2022-08-22T02:15:49.877Z,98467.56
2022-08-22T02:19:00.975Z,98464.41
2022-08-22T02:22:07.254Z,98465.72
2022-08-22T02:25:14.023Z,98464.63
2022-08-22T02:28:20.340Z,98467.09
2022-08-22T02:31:25.944Z,98457.72
2022-08-22T02:34:36.908Z,98472.56
2022-08-22T02:37:46.031Z,98463.94
2022-08-22T02:40:52.074Z,98465.88
2022-08-22T02:43:55.483Z,98457.06
2022-08-22T02:47:04.025Z,98464.69
2022-08-22T02:50:12.217Z,98465.91
2022-08-22T02:53:22.092Z,98464.00
2022-08-22T02:56:27.240Z,98462.06
2022-08-22T02:59:33.395Z,98462.81
2022-08-22T03:02:37.033Z,98460.66
2022-08-22T03:05:48.509Z,98463.78
2022-08-22T03:09:03.602Z,98457.53
2022-08-22T03:12:09.423Z,98455.81
2022-08-22T03:15:16.663Z,98458.81
2022-08-22T03:18:21.564Z,98457.22
2022-08-22T03:21:28.009Z,98458.81
2022-08-22T03:24:33.913Z,98455.16
2022-08-22T03:27:39.110Z,98456.47
2022-08-22T03:30:43.277Z,98453.44
2022-08-22T03:33:45.639Z,98444.50
2022-08-22T03:36:48.323Z,98453.75
2022-08-22T03:39:56.306Z,98443.19
2022-08-22T03:43:17.213Z,98437.81
2022-08-22T03:46:36.553Z,98445.56
2022-08-22T03:49:55.615Z,98442.88
2022-08-22T03:53:19.097Z,98449.00
2022-08-22T03:56:39.866Z,98446.56
2022-08-22T03:59:48.868Z,98447.19
2022-08-22T04:03:12.130Z,98453.09
2022-08-22T04:06:28.539Z,98460.38
2022-08-22T04:09:51.494Z,98451.78
2022-08-22T04:13:12.729Z,98457.34
2022-08-22T04:16:20.836Z,98465.50
2022-08-22T04:19:46.545Z,98466.81
2022-08-22T04:23:09.908Z,98469.13
2022-08-22T04:26:15.873Z,98462.44
2022-08-22T04:29:25.057Z,98469.19
2022-08-22T04:32:31.235Z,98466.41
2022-08-22T04:35:34.366Z,98478.00
2022-08-22T04:38:39.406Z,98479.94
2022-08-22T04:41:46.735Z,98477.31
2022-08-22T04:44:57.655Z,98478.28
2022-08-22T04:48:05.127Z,98483.56
2022-08-22T04:51:14.491Z,98479.16
2022-08-22T04:54:33.014Z,98481.75
2022-08-22T04:57:45.590Z,98481.66
2022-08-22T05:00:54.640Z,98480.69
2022-08-22T05:03:57.451Z,98486.59
2022-08-22T05:07:08.505Z,98482.78
2022-08-22T05:10:13.159Z,98489.66
2022-08-22T05:13:18.411Z,98499.44
2022-08-22T05:16:24.702Z,98496.53
2022-08-22T05:19:32.285Z,98497.31
2022-08-22T05:22:36.815Z,98494.63
2022-08-22T05:25:41.558Z,98497.88
2022-08-22T05:28:45.535Z,98501.88
2022-08-22T05:31:50.502Z,98492.63
2022-08-22T05:34:53.860Z,98495.66
2022-08-22T05:37:59.327Z,98490.72
2022-08-22T05:41:04.458Z,98493.97
2022-08-22T05:44:07.995Z,98494.72
2022-08-22T05:47:19.778Z,98497.88
2022-08-22T05:50:24.928Z,98504.53
2022-08-22T05:53:30.816Z,98500.56
2022-08-22T05:56:38.980Z,98498.41
2022-08-22T05:59:42.834Z,98503.28
2022-08-22T06:02:54.679Z,98494.13
2022-08-22T06:05:59.846Z,98504.34
2022-08-22T06:09:02.718Z,98502.34
2022-08-22T06:12:08.473Z,98501.59
2022-08-22T06:15:21.025Z,98505.34
2022-08-22T06:18:26.256Z,98507.28
2022-08-22T06:21:38.606Z,98505.78
2022-08-22T06:24:41.567Z,98510.41
2022-08-22T06:27:44.915Z,98512.09
2022-08-22T06:30:48.029Z,98508.72
2022-08-22T06:33:55.155Z,98523.47
2022-08-22T06:37:01.972Z,98520.44
2022-08-22T06:40:05.147Z,98517.50
2022-08-22T06:43:07.166Z,98515.34
2022-08-22T06:46:09.415Z,98521.50
2022-08-22T06:49:13.348Z,98527.00
2022-08-22T06:52:21.348Z,98525.28
2022-08-22T06:55:26.416Z,98523.94
2022-08-22T06:58:30.852Z,98534.41
2022-08-22T07:01:43.671Z,98525.88
2022-08-22T07:04:47.874Z,98530.59
2022-08-22T07:07:50.379Z,98529.06
2022-08-22T07:10:57.586Z,98523.31
2022-08-22T07:14:02.550Z,98522.25
2022-08-22T07:17:05.649Z,98523.09
2022-08-22T07:20:22.592Z,98530.94
2022-08-22T07:23:26.680Z,98531.97
2022-08-22T07:26:32.260Z,98538.66
2022-08-22T07:29:40.998Z,98534.47
2022-08-22T07:32:51.555Z,98540.66
2022-08-22T07:36:09.097Z,98546.50
2022-08-22T07:39:21.494Z,98537.22
2022-08-22T07:42:29.766Z,98548.09
2022-08-22T07:45:35.194Z,98542.44
2022-08-22T07:49:05.924Z,98556.06
2022-08-22T07:52:08.336Z,98545.88
2022-08-22T07:55:23.112Z,98542.06
2022-08-22T07:58:27.300Z,98544.56
2022-08-22T08:01:29.803Z,98541.47
2022-08-22T08:04:39.475Z,98550.94
2022-08-22T08:07:45.591Z,98559.66
2022-08-22T08:10:48.650Z,98549.44
2022-08-22T08:13:55.130Z,98547.97
2022-08-22T08:17:01.122Z,98549.09
2022-08-22T08:20:05.497Z,98543.06
2022-08-22T08:23:10.627Z,98542.31
2022-08-22T08:26:15.932Z,98552.38
2022-08-22T08:29:21.132Z,98545.63
2022-08-22T08:32:26.424Z,98548.28
2022-08-22T08:35:29.318Z,98546.84
2022-08-22T08:38:36.024Z,98550.00
2022-08-22T08:48:30.728Z,98552.16
2022-08-22T08:51:46.497Z,98540.97
2022-08-22T08:54:58.090Z,98535.94
2022-08-22T08:58:14.958Z,98537.88
2022-08-22T09:01:53.822Z,98542.41
2022-08-22T09:05:19.572Z,98523.66
2022-08-22T09:08:42.421Z,98527.09
2022-08-22T09:12:02.611Z,98532.03
2022-08-22T09:15:15.896Z,98529.03
2022-08-22T09:18:37.955Z,98539.19
2022-08-22T09:22:06.616Z,98532.28
2022-08-22T09:25:25.673Z,98521.75
2022-08-22T09:28:36.570Z,98527.38
2022-08-22T09:31:51.998Z,98525.06
2022-08-22T09:35:19.095Z,98524.13
2022-08-22T09:38:54.538Z,98516.34
2022-08-22T09:42:03.998Z,98509.50
2022-08-22T09:45:47.104Z,98507.66
2022-08-22T09:49:05.649Z,98512.09
2022-08-22T09:52:33.143Z,98505.25
2022-08-22T09:55:45.204Z,98501.59
2022-08-22T09:58:56.074Z,98497.00
2022-08-22T10:02:15.523Z,98500.41
2022-08-22T10:05:40.893Z,98490.03
2022-08-22T10:08:47.548Z,98487.94
2022-08-22T10:11:55.845Z,98495.19
2022-08-22T10:15:06.833Z,98480.31
2022-08-22T10:18:16.318Z,98478.03
2022-08-22T10:21:28.690Z,98484.75
2022-08-22T10:24:43.830Z,98476.72
2022-08-22T10:27:59.167Z,98477.19
2022-08-22T10:31:08.617Z,98480.84
2022-08-22T10:34:13.726Z,98466.38
2022-08-22T10:37:23.868Z,98469.97
2022-08-22T10:40:28.167Z,98468.41
2022-08-22T10:43:40.791Z,98470.34
2022-08-22T10:46:48.556Z,98465.91
2022-08-22T10:49:52.121Z,98466.22
2022-08-22T10:53:28.266Z,98459.78
2022-08-22T10:56:34.401Z,98463.78
2022-08-22T10:59:42.407Z,98465.22
2022-08-22T11:02:53.130Z,98456.09
2022-08-22T11:05:59.357Z,98462.09
2022-08-22T11:09:10.800Z,98456.69
2022-08-22T11:12:19.242Z,98455.50
2022-08-22T11:15:41.921Z,98455.44
2022-08-22T11:19:02.015Z,98460.16
2022-08-22T11:22:10.403Z,98452.94
2022-08-22T11:25:35.694Z,98451.75
2022-08-22T11:28:56.942Z,98448.03
2022-08-22T11:32:07.775Z,98457.00
2022-08-22T11:35:17.014Z,98457.06
2022-08-22T11:38:28.046Z,98459.41
2022-08-22T11:41:39.449Z,98451.38
2022-08-22T11:44:50.665Z,98451.88
2022-08-22T11:47:59.833Z,98456.94
2022-08-22T11:51:13.505Z,98449.19
2022-08-22T11:54:20.980Z,98455.72
2022-08-22T11:57:36.224Z,98451.81
2022-08-22T12:00:43.801Z,98447.44
2022-08-22T12:03:58.459Z,98453.06
2022-08-22T12:07:07.781Z,98447.84
2022-08-22T12:10:13.601Z,98443.75
2022-08-22T12:13:34.090Z,98452.72
2022-08-22T12:16:40.402Z,98452.25
2022-08-22T12:20:14.965Z,98450.50
2022-08-22T12:23:30.388Z,98432.31
2022-08-22T12:26:52.940Z,98433.81
2022-08-22T12:30:12.931Z,98424.13
2022-08-22T12:36:58.431Z,98416.72
2022-08-22T12:40:17.594Z,98413.63
2022-08-22T12:43:26.851Z,98404.41
2022-08-22T12:46:46.664Z,98398.09
2022-08-22T12:50:02.719Z,98398.78
2022-08-22T12:53:20.664Z,98399.31
2022-08-22T12:56:30.123Z,98396.53
2022-08-22T12:59:33.926Z,98396.06
2022-08-22T13:02:39.932Z,98388.81
2022-08-22T13:05:46.299Z,98387.47
2022-08-22T13:09:02.247Z,98381.13
2022-08-22T13:12:06.102Z,98383.88
2022-08-22T13:15:13.888Z,98377.88
2022-08-22T13:18:29.900Z,98387.06
2022-08-22T13:21:36.334Z,98373.47
2022-08-22T13:24:51.774Z,98384.41
2022-08-22T13:27:56.546Z,98373.09
2022-08-22T13:31:03.769Z,98367.44
2022-08-22T13:34:13.308Z,98368.94
2022-08-22T13:37:24.827Z,98368.34
2022-08-22T13:40:29.376Z,98366.88
2022-08-22T13:43:34.059Z,98366.19
2022-08-22T13:46:44.506Z,98357.97
2022-08-22T13:50:06.854Z,98357.44
2022-08-22T13:53:20.637Z,98364.00
2022-08-22T13:56:28.916Z,98354.88
2022-08-22T13:59:50.338Z,98359.44
2022-08-22T14:02:58.328Z,98354.94
2022-08-22T14:06:36.798Z,98352.91
2022-08-22T14:09:34.597Z,98358.13
2022-08-22T14:12:50.709Z,98350.78
2022-08-22T14:15:58.137Z,98344.78
2022-08-22T14:19:06.235Z,98353.03
2022-08-22T14:22:14.354Z,98345.72
2022-08-22T14:25:18.541Z,98339.88
2022-08-22T14:28:27.581Z,98343.88
2022-08-22T14:31:30.047Z,98339.31
2022-08-22T14:34:34.674Z,98346.81
2022-08-22T14:37:40.143Z,98343.66
2022-08-22T14:40:42.431Z,98338.19
2022-08-22T14:43:50.054Z,98338.97
2022-08-22T14:46:53.640Z,98339.31
2022-08-22T14:49:58.024Z,98336.22
2022-08-22T14:53:05.869Z,98337.91
2022-08-22T14:56:11.019Z,98332.28
2022-08-22T14:59:14.906Z,98329.16
2022-08-22T15:02:25.597Z,98333.31
2022-08-22T15:05:27.267Z,98319.88
2022-08-22T15:08:32.663Z,98318.91
2022-08-22T15:11:34.681Z,98311.91
2022-08-22T15:14:44.712Z,98320.63
2022-08-22T15:17:54.478Z,98316.34
2022-08-22T15:21:01.304Z,98311.91
2022-08-22T15:24:06.573Z,98309.69
2022-08-22T15:27:08.636Z,98304.56
2022-08-22T15:30:20.317Z,98307.78
2022-08-22T15:33:24.290Z,98306.44
2022-08-22T15:36:27.038Z,98300.97
2022-08-22T15:39:34.157Z,98304.22
2022-08-22T15:42:41.212Z,98296.53
2022-08-22T15:45:45.572Z,98293.81
2022-08-22T15:48:55.557Z,98304.22
2022-08-22T15:52:08.884Z,98289.88
2022-08-22T15:55:24.116Z,98302.50
2022-08-22T15:58:27.172Z,98301.44
2022-08-22T16:01:41.522Z,98295.81
2022-08-22T16:04:49.578Z,98291.00
2022-08-22T16:07:59.458Z,98285.22
2022-08-22T16:11:21.828Z,98292.38
2022-08-22T16:14:46.357Z,98291.69
2022-08-22T16:17:53.410Z,98292.53
2022-08-22T16:20:56.192Z,98288.09
2022-08-22T16:24:16.165Z,98284.84
2022-08-22T16:27:19.114Z,98282.28
2022-08-22T16:30:32.439Z,98287.25
2022-08-22T16:33:35.507Z,98284.69
2022-08-22T16:36:39.898Z,98274.47
2022-08-22T16:39:43.129Z,98276.66
2022-08-22T16:42:46.779Z,98292.16
2022-08-22T16:45:49.922Z,98280.22
2022-08-22T16:48:59.147Z,98281.88
2022-08-22T16:52:19.369Z,98272.69
2022-08-22T16:55:39.679Z,98280.47
2022-08-22T16:59:13.875Z,98273.66
2022-08-22T17:02:27.820Z,98281.47
2022-08-22T17:05:36.845Z,98278.06
2022-08-22T17:08:45.974Z,98279.72
2022-08-22T17:11:56.216Z,98275.25
2022-08-22T17:15:04.306Z,98282.34
2022-08-22T17:18:22.915Z,98283.00
2022-08-22T17:21:26.822Z,98284.84
2022-08-22T17:24:33.966Z,98286.00
2022-08-22T17:27:41.723Z,98281.22
2022-08-22T17:30:46.851Z,98281.66
2022-08-22T17:34:10.396Z,98274.69
2022-08-22T17:37:18.147Z,98284.19
2022-08-22T17:40:28.339Z,98284.50
2022-08-22T17:43:48.504Z,98291.28
2022-08-22T17:46:52.603Z,98302.66
2022-08-22T17:50:00.620Z,98314.41
2022-08-22T17:53:05.439Z,98321.56
2022-08-22T17:56:15.733Z,98319.69
2022-08-22T17:59:21.142Z,98324.28
2022-08-22T18:02:25.666Z,98328.88
2022-08-22T18:05:31.667Z,98332.97
2022-08-22T18:09:13.397Z,98341.53
2022-08-22T18:12:01.287Z,98338.94
2022-08-22T18:15:05.229Z,98353.06
2022-08-22T18:18:09.409Z,98344.34
2022-08-22T18:21:20.820Z,98355.88
2022-08-22T18:24:25.242Z,98361.06
2022-08-22T18:27:34.429Z,98346.53
2022-08-22T18:30:48.244Z,98346.28
2022-08-22T18:33:51.947Z,98353.91
2022-08-22T18:37:01.652Z,98357.94
2022-08-22T18:40:06.820Z,98359.44
2022-08-22T18:43:14.178Z,98354.59
2022-08-22T18:46:33.051Z,98353.75
2022-08-22T18:49:41.984Z,98353.47
2022-08-22T18:52:45.104Z,98361.63
2022-08-22T18:55:50.548Z,98362.91
2022-08-22T18:59:06.132Z,98357.25
2022-08-22T19:02:20.669Z,98358.56
2022-08-22T19:05:39.465Z,98356.69
2022-08-22T19:09:01.675Z,98361.13
2022-08-22T19:12:07.452Z,98360.25
2022-08-22T19:15:27.464Z,98357.31
2022-08-22T19:18:34.443Z,98359.94
2022-08-22T19:21:55.600Z,98365.69
2022-08-22T19:25:13.276Z,98362.19
2022-08-22T19:28:25.275Z,98360.75
2022-08-22T19:31:45.491Z,98366.50
2022-08-22T19:34:47.887Z,98367.78
2022-08-22T19:37:54.096Z,98368.38
2022-08-22T19:40:58.450Z,98370.25
2022-08-22T19:44:00.223Z,98364.13
2022-08-22T19:47:04.935Z,98376.84
2022-08-22T19:50:09.723Z,98373.56
2022-08-22T19:53:20.524Z,98367.56
2022-08-22T19:56:30.578Z,98368.44
2022-08-22T19:59:40.004Z,98374.56
2022-08-22T20:02:55.992Z,98377.16
2022-08-22T20:06:05.270Z,98379.56
2022-08-22T20:09:16.024Z,98378.56
2022-08-22T20:12:22.604Z,98385.00
2022-08-22T20:15:26.270Z,98385.00
2022-08-22T20:18:48.730Z,98394.16
2022-08-22T20:21:55.288Z,98397.16
2022-08-22T20:24:58.543Z,98397.31
2022-08-22T20:28:02.980Z,98396.63
2022-08-22T20:31:06.530Z,98402.34
2022-08-22T20:34:09.727Z,98401.66
2022-08-22T20:37:29.591Z,98406.50
2022-08-22T20:40:54.827Z,98411.38
2022-08-22T20:44:02.476Z,98412.41
2022-08-22T20:47:06.429Z,98410.00
2022-08-22T20:50:10.335Z,98420.97
2022-08-22T20:53:14.841Z,98413.84
2022-08-22T20:56:18.972Z,98432.00
2022-08-22T20:59:30.014Z,98428.56
2022-08-22T21:02:35.533Z,98427.03
2022-08-22T21:05:40.803Z,98431.03
2022-08-22T21:08:43.432Z,98437.44
2022-08-22T21:11:49.692Z,98437.75
2022-08-22T21:14:52.700Z,98451.63
2022-08-22T21:17:54.237Z,98442.63
2022-08-22T21:21:07.107Z,98450.94
2022-08-22T21:24:12.341Z,98450.34
2022-08-22T21:27:20.605Z,98434.34
2022-08-22T21:30:25.774Z,98431.09
2022-08-22T21:33:27.592Z,98433.34
2022-08-22T21:36:30.854Z,98426.91
2022-08-22T21:39:34.705Z,98422.66
2022-08-22T21:42:38.441Z,98418.38
2022-08-22T21:45:42.483Z,98421.25
2022-08-22T21:48:56.624Z,98417.19
2022-08-22T21:51:58.115Z,98417.50
2022-08-22T21:55:12.597Z,98419.50
2022-08-22T21:58:36.941Z,98426.78
2022-08-22T22:01:42.616Z,98421.50
2022-08-22T22:04:44.447Z,98412.63
2022-08-22T22:07:47.011Z,98420.22
2022-08-22T22:10:49.544Z,98416.94
2022-08-22T22:13:51.145Z,98415.22
2022-08-22T22:16:54.603Z,98420.94
2022-08-22T22:19:56.529Z,98422.78
2022-08-22T22:23:00.284Z,98420.94
2022-08-22T22:26:03.832Z,98415.78
2022-08-22T22:29:05.861Z,98417.50
2022-08-22T22:32:11.963Z,98419.22
2022-08-22T22:35:14.132Z,98414.94
2022-08-22T22:38:19.468Z,98417.81
2022-08-22T22:41:25.943Z,98421.22
2022-08-22T22:44:27.729Z,98423.22
2022-08-22T22:47:31.682Z,98427.81
2022-08-22T22:50:33.917Z,98426.22
2022-08-22T22:53:40.449Z,98415.66
2022-08-22T22:56:47.838Z,98424.06
2022-08-22T22:59:50.000Z,98424.38
2022-08-22T23:02:55.421Z,98428.22
2022-08-22T23:06:05.679Z,98431.22
2022-08-22T23:09:08.978Z,98425.22
2022-08-22T23:12:11.226Z,98426.22
2022-08-22T23:15:13.201Z,98432.66
2022-08-22T23:18:30.116Z,98429.34
2022-08-22T23:21:32.436Z,98425.06
2022-08-22T23:24:35.135Z,98422.50
2022-08-22T23:27:48.667Z,98426.34
2022-08-22T23:31:08.297Z,98427.34
2022-08-22T23:34:13.091Z,98435.75
2022-08-22T23:37:16.218Z,98436.03
2022-08-22T23:40:18.344Z,98431.06
2022-08-22T23:43:20.153Z,98439.19
2022-08-22T23:46:23.254Z,98432.91
2022-08-22T23:49:27.630Z,98428.88
2022-08-22T23:52:29.406Z,98432.88
2022-08-22T23:55:31.287Z,98434.75
2022-08-22T23:58:33.891Z,98431.41
